createdAt,value
2023-02-11T00:01:35.899Z,102601.25
2023-02-11T00:04:02.586Z,102596.91
2023-02-11T00:06:31.484Z,102587.13
2023-02-11T00:08:57.968Z,102591.56
2023-02-11T00:11:24.707Z,102590.72
2023-02-11T00:13:51.160Z,102586.34
2023-02-11T00:16:19.150Z,102583.72
2023-02-11T00:18:45.656Z,102569.66
2023-02-11T00:21:13.954Z,102562.53
2023-02-11T00:23:40.397Z,102573.19
2023-02-11T00:26:13.454Z,102570.41
2023-02-11T00:28:40.372Z,102571.25
2023-02-11T00:31:06.899Z,102572.22
2023-02-11T00:33:33.353Z,102573.09
2023-02-11T00:36:04.139Z,102570.47
2023-02-11T00:38:30.533Z,102567.81
2023-02-11T00:40:57.015Z,102560.72
2023-02-11T00:43:23.423Z,102566.03
2023-02-11T00:45:50.134Z,102570.41
2023-02-11T00:48:16.774Z,102562.41
2023-02-11T00:50:43.182Z,102561.50
2023-02-11T00:53:09.562Z,102558.78
2023-02-11T00:55:35.953Z,102549.09
2023-02-11T00:58:02.362Z,102549.97
2023-02-11T01:00:28.795Z,102556.19
2023-02-11T01:02:55.186Z,102557.88
2023-02-11T01:05:21.663Z,102557.88
2023-02-11T01:07:48.129Z,102557.06
2023-02-11T01:10:14.535Z,102551.75
2023-02-11T01:12:40.923Z,102537.59
2023-02-11T01:15:08.213Z,102542.09
2023-02-11T01:17:35.757Z,102536.03
2023-02-11T01:20:05.060Z,102541.31
2023-02-11T01:22:31.471Z,102533.31
2023-02-11T01:24:57.868Z,102532.41
2023-02-11T01:27:24.282Z,102527.97
2023-02-11T01:29:50.697Z,102527.13
2023-02-11T01:32:17.878Z,102539.56
2023-02-11T01:34:44.296Z,102530.75
2023-02-11T01:37:10.712Z,102533.44
2023-02-11T01:39:37.119Z,102527.28
2023-02-11T01:42:03.637Z,102524.63
2023-02-11T01:44:35.439Z,102529.06
2023-02-11T01:47:01.851Z,102521.09
2023-02-11T01:49:32.323Z,102534.38
2023-02-11T01:52:21.513Z,102518.47
2023-02-11T01:54:50.560Z,102521.94
2023-02-11T01:57:18.535Z,102521.94
2023-02-11T02:00:08.051Z,102515.78
2023-02-11T02:02:58.204Z,102511.38
2023-02-11T02:05:27.517Z,102507.81
2023-02-11T02:07:53.833Z,102511.38
2023-02-11T02:10:21.032Z,102502.53
2023-02-11T02:12:47.445Z,102497.22
2023-02-11T02:15:28.350Z,102501.72
2023-02-11T02:17:58.914Z,102495.50
2023-02-11T02:20:49.302Z,102486.69
2023-02-11T02:23:24.830Z,102479.63
2023-02-11T02:26:26.675Z,102486.72
2023-02-11T02:29:02.024Z,102484.00
2023-02-11T02:31:33.896Z,102474.38
2023-02-11T02:34:08.384Z,102474.41
2023-02-11T02:36:38.740Z,102474.44
2023-02-11T02:39:11.849Z,102462.97
2023-02-11T02:41:38.302Z,102460.41
2023-02-11T02:44:04.785Z,102454.19
2023-02-11T02:46:32.426Z,102462.03
2023-02-11T02:48:58.853Z,102472.66
2023-02-11T02:51:34.432Z,102455.94
2023-02-11T02:54:06.940Z,102460.34
2023-02-11T02:56:54.415Z,102457.72
2023-02-11T02:59:32.880Z,102447.16
2023-02-11T03:02:09.433Z,102454.28
2023-02-11T03:04:39.854Z,102445.41
2023-02-11T03:07:12.421Z,102452.47
2023-02-11T03:09:50.822Z,102445.38
2023-02-11T03:12:17.221Z,102449.78
2023-02-11T03:14:43.641Z,102464.84
2023-02-11T03:17:10.024Z,102462.19
2023-02-11T03:19:38.057Z,102462.25
2023-02-11T03:22:11.278Z,102452.59
2023-02-11T03:24:38.478Z,102447.25
2023-02-11T03:27:32.886Z,102449.00
2023-02-11T03:30:04.169Z,102448.19
2023-02-11T03:32:33.108Z,102446.41
2023-02-11T03:35:19.160Z,102428.78
2023-02-11T03:37:48.417Z,102417.28
2023-02-11T03:40:28.659Z,102419.97
2023-02-11T03:43:03.605Z,102420.00
2023-02-11T03:45:30.077Z,102418.25
2023-02-11T03:48:10.941Z,102419.19
2023-02-11T03:50:37.386Z,102415.72
2023-02-11T03:53:03.841Z,102416.59
2023-02-11T03:55:30.329Z,102414.91
2023-02-11T03:57:56.750Z,102406.06
2023-02-11T04:00:32.594Z,102413.19
2023-02-11T04:02:59.019Z,102408.78
2023-02-11T04:05:25.443Z,102415.09
2023-02-11T04:07:51.836Z,102413.22
2023-02-11T04:10:18.494Z,102429.19
2023-02-11T04:12:44.901Z,102427.50
2023-02-11T04:15:11.392Z,102428.41
2023-02-11T04:17:37.910Z,102427.50
2023-02-11T04:20:04.601Z,102424.88
2023-02-11T04:22:31.148Z,102427.59
2023-02-11T04:24:57.592Z,102416.13
2023-02-11T04:27:24.029Z,102426.75
2023-02-11T04:29:50.452Z,102417.91
2023-02-11T04:32:16.863Z,102428.50
2023-02-11T04:34:43.260Z,102434.78
2023-02-11T04:37:09.671Z,102440.06
2023-02-11T04:39:36.158Z,102429.53
2023-02-11T04:42:02.637Z,102433.94
2023-02-11T04:44:29.012Z,102433.06
2023-02-11T04:46:55.465Z,102441.03
2023-02-11T04:49:21.856Z,102423.38
2023-02-11T04:51:49.487Z,102434.88
2023-02-11T04:54:16.298Z,102431.34
2023-02-11T04:56:42.707Z,102439.28
2023-02-11T04:59:09.126Z,102442.81
2023-02-11T05:01:35.630Z,102434.03
2023-02-11T05:04:02.258Z,102437.59
2023-02-11T05:06:28.680Z,102428.69
2023-02-11T05:08:55.086Z,102441.09
2023-02-11T05:11:22.519Z,102456.16
2023-02-11T05:13:48.941Z,102442.94
2023-02-11T05:16:15.526Z,102442.91
2023-02-11T05:18:42.300Z,102443.81
2023-02-11T05:21:09.338Z,102441.16
2023-02-11T05:23:35.861Z,102437.53
2023-02-11T05:26:02.314Z,102438.41
2023-02-11T05:28:28.906Z,102441.03
2023-02-11T05:30:55.560Z,102440.22
2023-02-11T05:33:22.024Z,102439.34
2023-02-11T05:35:48.621Z,102436.72
2023-02-11T05:38:15.185Z,102433.16
2023-02-11T05:40:41.616Z,102427.88
2023-02-11T05:43:08.013Z,102419.88
2023-02-11T05:45:34.396Z,102415.41
2023-02-11T05:48:00.788Z,102410.09
2023-02-11T05:50:27.207Z,102408.41
2023-02-11T05:52:53.608Z,102411.00
2023-02-11T05:55:20.254Z,102408.41
2023-02-11T05:57:46.663Z,102404.81
2023-02-11T06:00:13.705Z,102412.78
2023-02-11T06:02:40.225Z,102403.09
2023-02-11T06:05:07.043Z,102416.34
2023-02-11T06:07:33.454Z,102419.03
2023-02-11T06:09:59.911Z,102411.97
2023-02-11T06:12:26.513Z,102406.69
2023-02-11T06:14:53.179Z,102400.50
2023-02-11T06:17:19.560Z,102389.84
2023-02-11T06:19:45.958Z,102370.44
2023-02-11T06:22:12.356Z,102374.84
2023-02-11T06:24:59.843Z,102374.94
2023-02-11T06:27:25.132Z,102383.72
2023-02-11T06:29:51.575Z,102389.06
2023-02-11T06:32:39.490Z,102403.25
2023-02-11T06:35:04.479Z,102426.22
2023-02-11T06:37:30.851Z,102430.72
2023-02-11T06:39:57.247Z,102441.34
2023-02-11T06:42:23.656Z,102438.72
2023-02-11T06:44:50.068Z,102437.81
2023-02-11T06:47:16.489Z,102441.38
2023-02-11T06:49:42.909Z,102441.38
2023-02-11T06:52:09.292Z,102451.13
2023-02-11T06:54:35.731Z,102444.00
2023-02-11T06:57:02.131Z,102446.66
2023-02-11T06:59:28.589Z,102452.84
2023-02-11T07:01:54.993Z,102451.13
2023-02-11T07:04:21.393Z,102457.34
2023-02-11T07:06:47.800Z,102455.53
2023-02-11T07:09:14.183Z,102461.75
2023-02-11T07:11:40.587Z,102447.56
2023-02-11T07:14:07.948Z,102455.50
2023-02-11T07:16:34.476Z,102467.91
2023-02-11T07:19:00.937Z,102468.75
2023-02-11T07:21:27.381Z,102473.19
2023-02-11T07:23:53.802Z,102476.72
2023-02-11T07:26:21.407Z,102471.44
2023-02-11T07:28:47.783Z,102476.66
2023-02-11T07:31:25.013Z,102464.28
2023-02-11T07:33:52.273Z,102474.09
2023-02-11T07:36:18.700Z,102479.41
2023-02-11T07:38:45.116Z,102476.75
2023-02-11T07:41:13.558Z,102490.91
2023-02-11T07:43:40.215Z,102492.69
2023-02-11T07:46:08.410Z,102489.13
2023-02-11T07:48:34.856Z,102483.84
2023-02-11T07:51:11.258Z,102493.56
2023-02-11T07:53:37.635Z,102501.53
2023-02-11T07:56:04.948Z,102503.31
2023-02-11T07:58:31.777Z,102505.13
2023-02-11T08:01:03.036Z,102511.38
2023-02-11T08:03:29.771Z,102517.59
2023-02-11T08:05:57.286Z,102523.72
2023-02-11T08:08:25.899Z,102522.00
2023-02-11T08:10:52.542Z,102522.97
2023-02-11T08:13:19.053Z,102519.41
2023-02-11T08:15:45.465Z,102517.66
2023-02-11T08:18:11.869Z,102522.97
2023-02-11T08:20:38.284Z,102518.56
2023-02-11T08:23:06.749Z,102519.44
2023-02-11T08:25:33.404Z,102531.81
2023-02-11T08:27:59.842Z,102521.25
2023-02-11T08:30:27.489Z,102529.25
2023-02-11T08:32:54.893Z,102530.16
2023-02-11T08:35:23.989Z,102540.75
2023-02-11T08:37:50.458Z,102549.59
2023-02-11T08:40:17.110Z,102557.59
2023-02-11T08:42:43.529Z,102564.69
2023-02-11T08:45:10.070Z,102562.00
2023-02-11T08:47:37.053Z,102557.59
2023-02-11T08:50:03.906Z,102572.66
2023-02-11T08:52:30.453Z,102565.59
2023-02-11T08:54:56.849Z,102563.78
2023-02-11T08:57:23.251Z,102563.78
2023-02-11T08:59:49.638Z,102579.72
2023-02-11T09:02:16.193Z,102567.34
2023-02-11T09:04:42.622Z,102577.13
2023-02-11T09:07:09.014Z,102567.38
2023-02-11T09:09:35.442Z,102569.19
2023-02-11T09:12:01.847Z,102577.19
2023-02-11T09:14:28.265Z,102575.41
2023-02-11T09:16:54.716Z,102578.91
2023-02-11T09:19:21.313Z,102575.41
2023-02-11T09:21:47.738Z,102571.06
2023-02-11T09:24:14.223Z,102577.28
2023-02-11T09:26:41.810Z,102578.09
2023-02-11T09:29:08.273Z,102579.06
2023-02-11T09:31:34.924Z,102571.13
2023-02-11T09:34:04.133Z,102572.03
2023-02-11T09:36:32.379Z,102584.44
2023-02-11T09:39:00.206Z,102588.03
2023-02-11T09:41:39.052Z,102590.66
2023-02-11T09:44:06.945Z,102591.56
2023-02-11T09:46:36.421Z,102595.16
2023-02-11T09:49:02.868Z,102589.88
2023-02-11T09:51:42.756Z,102591.63
2023-02-11T09:54:15.610Z,102588.97
2023-02-11T09:56:41.992Z,102584.63
2023-02-11T09:59:13.150Z,102586.41
2023-02-11T10:01:40.806Z,102601.50
2023-02-11T10:04:30.461Z,102597.13
2023-02-11T10:06:59.874Z,102601.53
2023-02-11T10:09:32.311Z,102608.63
2023-02-11T10:12:17.136Z,102600.63
2023-02-11T10:14:49.571Z,102613.09
2023-02-11T10:17:15.873Z,102610.38
2023-02-11T10:20:08.204Z,102624.53
2023-02-11T10:22:38.083Z,102620.09
2023-02-11T10:25:34.630Z,102635.19
2023-02-11T10:28:01.754Z,102631.63
2023-02-11T10:30:33.547Z,102621.03
2023-02-11T10:33:04.489Z,102621.91
2023-02-11T10:35:30.864Z,102626.41
2023-02-11T10:37:57.283Z,102632.56
2023-02-11T10:40:25.219Z,102638.78
2023-02-11T10:42:55.604Z,102633.53
2023-02-11T10:45:30.326Z,102635.28
2023-02-11T10:47:56.738Z,102635.25
2023-02-11T10:50:28.164Z,102631.81
2023-02-11T10:53:11.156Z,102634.41
2023-02-11T10:55:37.559Z,102623.75
2023-02-11T10:58:04.071Z,102614.03
2023-02-11T11:00:34.460Z,102615.81
2023-02-11T11:03:00.946Z,102611.41
2023-02-11T11:05:35.333Z,102615.84
2023-02-11T11:08:06.379Z,102614.97
2023-02-11T11:10:36.988Z,102617.59
2023-02-11T11:13:03.429Z,102627.34
2023-02-11T11:15:30.924Z,102625.53
2023-02-11T11:18:22.462Z,102629.03
2023-02-11T11:20:55.159Z,102622.84
2023-02-11T11:23:22.298Z,102606.03
2023-02-11T11:26:14.292Z,102612.25
2023-02-11T11:28:46.570Z,102606.97
2023-02-11T11:31:14.897Z,102611.44
2023-02-11T11:33:42.090Z,102616.75
2023-02-11T11:36:10.052Z,102615.91
2023-02-11T11:38:37.758Z,102616.00
2023-02-11T11:41:24.544Z,102623.97
2023-02-11T11:44:22.957Z,102623.03
2023-02-11T11:46:50.876Z,102623.88
2023-02-11T11:49:43.454Z,102630.09
2023-02-11T11:52:12.030Z,102625.66
2023-02-11T11:54:38.418Z,102624.81
2023-02-11T11:57:19.856Z,102629.19
2023-02-11T11:59:46.233Z,102629.19
2023-02-11T12:02:54.501Z,102633.66
2023-02-11T12:05:26.576Z,102650.50
2023-02-11T12:08:11.030Z,102644.31
2023-02-11T12:10:53.260Z,102647.00
2023-02-11T12:13:49.308Z,102648.72
2023-02-11T12:16:18.656Z,102644.28
2023-02-11T12:19:19.149Z,102651.38
2023-02-11T12:22:14.315Z,102666.47
2023-02-11T12:24:43.533Z,102661.16
2023-02-11T12:27:18.002Z,102669.13
2023-02-11T12:30:06.350Z,102660.22
2023-02-11T12:32:39.175Z,102652.31
2023-02-11T12:35:42.167Z,102660.31
2023-02-11T12:38:30.528Z,102659.41
2023-02-11T12:41:40.203Z,102664.81
2023-02-11T12:44:08.215Z,102658.59
2023-02-11T12:46:40.069Z,102659.50
2023-02-11T12:49:44.063Z,102651.53
2023-02-11T12:52:28.395Z,102662.16
2023-02-11T12:55:09.389Z,102661.25
2023-02-11T12:57:36.329Z,102659.47
2023-02-11T13:00:07.723Z,102645.31
2023-02-11T13:02:39.434Z,102657.78
2023-02-11T13:05:22.552Z,102653.31
2023-02-11T13:07:49.005Z,102652.44
2023-02-11T13:10:33.040Z,102655.09
2023-02-11T13:12:59.489Z,102651.56
2023-02-11T13:15:25.906Z,102651.56
2023-02-11T13:18:01.584Z,102651.59
2023-02-11T13:20:43.683Z,102650.72
2023-02-11T13:23:19.187Z,102663.13
2023-02-11T13:26:01.682Z,102665.75
2023-02-11T13:28:30.380Z,102668.38
2023-02-11T13:30:56.851Z,102660.41
2023-02-11T13:33:37.404Z,102662.16
2023-02-11T13:36:04.804Z,102665.69
2023-02-11T13:38:31.390Z,102673.66
2023-02-11T13:41:04.940Z,102670.13
2023-02-11T13:43:33.212Z,102662.16
2023-02-11T13:46:03.278Z,102668.38
2023-02-11T13:48:39.210Z,102663.94
2023-02-11T13:51:06.358Z,102663.97
2023-02-11T13:53:54.910Z,102666.63
2023-02-11T13:56:28.765Z,102671.94
2023-02-11T13:58:55.209Z,102662.16
2023-02-11T14:01:41.495Z,102673.66
2023-02-11T14:04:24.704Z,102676.34
2023-02-11T14:07:28.516Z,102671.94
2023-02-11T14:09:55.956Z,102672.84
2023-02-11T14:12:30.596Z,102679.03
2023-02-11T14:15:07.864Z,102675.47
2023-02-11T14:17:35.745Z,102679.03
2023-02-11T14:20:03.782Z,102686.97
2023-02-11T14:22:48.483Z,102695.00
2023-02-11T14:25:33.078Z,102703.84
2023-02-11T14:28:08.958Z,102703.88
2023-02-11T14:30:54.214Z,102702.97
2023-02-11T14:33:34.113Z,102715.44
2023-02-11T14:36:39.995Z,102710.97
2023-02-11T14:39:08.781Z,102718.03
2023-02-11T14:41:42.447Z,102712.72
2023-02-11T14:44:18.074Z,102716.25
2023-02-11T14:46:49.230Z,102734.03
2023-02-11T14:49:35.056Z,102736.66
2023-02-11T14:52:07.492Z,102748.22
2023-02-11T14:54:33.923Z,102758.00
2023-02-11T14:57:12.134Z,102757.06
2023-02-11T14:59:38.635Z,102759.75
2023-02-11T15:02:19.893Z,102766.81
2023-02-11T15:04:46.414Z,102764.13
2023-02-11T15:07:12.810Z,102772.09
2023-02-11T15:09:41.851Z,102780.94
2023-02-11T15:12:25.175Z,102781.72
2023-02-11T15:14:53.622Z,102780.75
2023-02-11T15:17:22.330Z,102771.88
2023-02-11T15:19:50.493Z,102782.47
2023-02-11T15:22:18.945Z,102790.44
2023-02-11T15:24:47.580Z,102798.38
2023-02-11T15:27:14.068Z,102796.63
2023-02-11T15:29:45.063Z,102792.16
2023-02-11T15:32:18.470Z,102797.47
2023-02-11T15:34:45.328Z,102802.72
2023-02-11T15:37:14.260Z,102792.88
2023-02-11T15:39:42.296Z,102790.28
2023-02-11T15:42:28.183Z,102784.88
2023-02-11T15:45:09.815Z,102786.63
2023-02-11T15:47:38.448Z,102775.97
2023-02-11T15:50:06.001Z,102779.50
2023-02-11T15:52:32.545Z,102780.28
2023-02-11T15:55:00.556Z,102785.53
2023-02-11T15:57:28.169Z,102787.31
2023-02-11T15:59:54.652Z,102795.34
2023-02-11T16:02:31.008Z,102805.03
2023-02-11T16:04:59.016Z,102820.00
2023-02-11T16:07:40.886Z,102808.41
2023-02-11T16:10:19.950Z,102814.69
2023-02-11T16:13:03.959Z,102819.19
2023-02-11T16:15:33.703Z,102820.88
2023-02-11T16:18:01.261Z,102820.94
2023-02-11T16:20:27.727Z,102817.38
2023-02-11T16:22:54.103Z,102814.66
2023-02-11T16:25:20.941Z,102830.59
2023-02-11T16:27:53.540Z,102834.13
2023-02-11T16:30:34.054Z,102844.78
2023-02-11T16:33:00.562Z,102850.06
2023-02-11T16:35:26.979Z,102858.03
2023-02-11T16:37:53.396Z,102865.13
2023-02-11T16:40:19.874Z,102885.53
2023-02-11T16:42:46.288Z,102874.00
2023-02-11T16:45:13.572Z,102878.53
2023-02-11T16:47:40.038Z,102874.03
2023-02-11T16:50:09.098Z,102874.88
2023-02-11T16:52:36.242Z,102876.66
2023-02-11T16:55:03.343Z,102892.69
2023-02-11T16:57:30.486Z,102890.97
2023-02-11T16:59:57.078Z,102903.34
2023-02-11T17:02:32.943Z,102905.06
2023-02-11T17:05:03.485Z,102905.88
2023-02-11T17:07:29.942Z,102912.09
2023-02-11T17:09:56.408Z,102903.31
2023-02-11T17:12:22.893Z,102901.53
2023-02-11T17:14:49.290Z,102912.16
2023-02-11T17:17:15.741Z,102914.84
2023-02-11T17:19:42.139Z,102908.56
2023-02-11T17:22:08.569Z,102912.06
2023-02-11T17:24:34.975Z,102913.81
2023-02-11T17:27:01.469Z,102915.63
2023-02-11T17:29:27.898Z,102920.03
2023-02-11T17:31:54.451Z,102922.66
2023-02-11T17:34:21.280Z,102929.75
2023-02-11T17:36:47.801Z,102928.91
2023-02-11T17:39:14.361Z,102942.19
2023-02-11T17:41:41.021Z,102942.19
2023-02-11T17:44:07.779Z,102943.91
2023-02-11T17:46:34.868Z,102943.78
2023-02-11T17:49:01.402Z,102935.00
2023-02-11T17:51:36.321Z,102931.44
2023-02-11T17:54:14.170Z,102930.59
2023-02-11T17:56:40.611Z,102945.56
2023-02-11T17:59:07.621Z,102943.72
2023-02-11T18:01:34.486Z,102959.69
2023-02-11T18:04:01.166Z,102958.72
2023-02-11T18:06:27.784Z,102957.00
2023-02-11T18:08:59.064Z,102964.09
2023-02-11T18:11:25.516Z,102962.31
2023-02-11T18:13:52.003Z,102972.13
2023-02-11T18:16:18.433Z,102972.19
2023-02-11T18:18:44.858Z,102970.47
2023-02-11T18:21:11.739Z,102969.50
2023-02-11T18:23:38.149Z,102970.44
2023-02-11T18:26:07.310Z,102978.38
2023-02-11T18:28:33.880Z,102978.31
2023-02-11T18:31:00.531Z,102985.47
2023-02-11T18:33:27.340Z,102985.50
2023-02-11T18:35:54.243Z,102987.28
2023-02-11T18:38:20.679Z,102996.97
2023-02-11T18:40:47.070Z,102988.94
2023-02-11T18:43:14.166Z,102997.03
2023-02-11T18:45:44.450Z,103004.03
2023-02-11T18:48:11.081Z,102998.81
2023-02-11T18:50:39.970Z,103002.25
2023-02-11T18:53:06.409Z,103000.56
2023-02-11T18:55:32.827Z,103004.13
2023-02-11T18:57:59.216Z,102998.72
2023-02-11T19:00:25.698Z,102997.81
2023-02-11T19:02:52.095Z,102996.84
2023-02-11T19:05:18.963Z,102999.53
2023-02-11T19:07:45.358Z,103011.00
2023-02-11T19:10:11.857Z,103026.06
2023-02-11T19:12:38.289Z,103035.88
2023-02-11T19:15:06.973Z,103045.53
2023-02-11T19:17:33.440Z,103048.97
2023-02-11T19:19:59.926Z,103054.44
2023-02-11T19:22:26.401Z,103048.38
2023-02-11T19:24:55.236Z,103059.78
2023-02-11T19:27:21.634Z,103068.50
2023-02-11T19:29:48.154Z,103051.72
2023-02-11T19:32:16.184Z,103052.66
2023-02-11T19:34:42.716Z,103041.97
2023-02-11T19:37:09.813Z,103031.34
2023-02-11T19:39:36.471Z,103029.56
2023-02-11T19:42:02.971Z,103029.63
2023-02-11T19:44:29.403Z,103026.19
2023-02-11T19:46:55.802Z,103026.19
2023-02-11T19:49:22.324Z,103027.97
2023-02-11T19:51:55.479Z,103025.25
2023-02-11T19:54:21.877Z,103028.81
2023-02-11T19:56:48.343Z,103024.41
2023-02-11T19:59:15.024Z,103020.97
2023-02-11T20:01:41.599Z,103016.50
2023-02-11T20:04:08.080Z,103023.50
2023-02-11T20:06:34.665Z,103024.28
2023-02-11T20:09:05.648Z,103027.00
2023-02-11T20:11:34.299Z,103027.03
2023-02-11T20:14:00.760Z,103035.88
2023-02-11T20:16:44.658Z,103025.31
2023-02-11T20:19:14.442Z,103027.91
2023-02-11T20:21:40.869Z,103036.72
2023-02-11T20:24:07.282Z,103060.59
2023-02-11T20:26:33.786Z,103047.47
2023-02-11T20:29:00.831Z,103057.19
2023-02-11T20:31:27.424Z,103060.66
2023-02-11T20:33:53.853Z,103062.34
2023-02-11T20:36:22.247Z,103063.22
2023-02-11T20:38:48.772Z,103065.00
2023-02-11T20:41:16.233Z,103061.63
2023-02-11T20:43:43.731Z,103071.28
2023-02-11T20:46:10.197Z,103077.50
2023-02-11T20:48:36.644Z,103077.41
2023-02-11T20:51:04.262Z,103087.13
2023-02-11T20:53:30.678Z,103088.06
2023-02-11T20:55:57.102Z,103090.78
2023-02-11T20:58:23.525Z,103096.00
2023-02-11T21:00:49.992Z,103100.47
2023-02-11T21:03:16.466Z,103101.34
2023-02-11T21:05:42.883Z,103088.91
2023-02-11T21:08:09.425Z,103086.25
2023-02-11T21:10:35.831Z,103104.06
2023-02-11T21:13:02.283Z,103104.84
2023-02-11T21:15:29.436Z,103104.81
2023-02-11T21:17:55.868Z,103112.81
2023-02-11T21:20:22.253Z,103108.44
2023-02-11T21:22:48.661Z,103116.44
2023-02-11T21:25:15.062Z,103123.59
2023-02-11T21:27:41.504Z,103130.53
2023-02-11T21:30:08.469Z,103136.66
2023-02-11T21:32:34.922Z,103142.03
2023-02-11T21:35:02.369Z,103142.88
2023-02-11T21:37:29.031Z,103144.50
2023-02-11T21:39:55.448Z,103148.13
2023-02-11T21:42:21.833Z,103157.84
2023-02-11T21:44:48.253Z,103164.88
2023-02-11T21:47:14.630Z,103163.06
2023-02-11T21:49:41.142Z,103157.69
2023-02-11T21:52:07.562Z,103165.69
2023-02-11T21:54:33.980Z,103164.75
2023-02-11T21:57:00.392Z,103170.00
2023-02-11T21:59:26.839Z,103175.25
2023-02-11T22:01:53.237Z,103182.31
2023-02-11T22:04:19.715Z,103183.97
2023-02-11T22:06:46.150Z,103188.38
2023-02-11T22:09:12.563Z,103186.63
2023-02-11T22:11:39.001Z,103183.19
2023-02-11T22:14:05.466Z,103182.22
2023-02-11T22:16:32.006Z,103178.72
2023-02-11T22:18:58.652Z,103199.09
2023-02-11T22:21:25.273Z,103202.50
2023-02-11T22:23:51.766Z,103194.59
2023-02-11T22:26:20.228Z,103196.38
2023-02-11T22:28:46.660Z,103199.06
2023-02-11T22:31:14.408Z,103194.63
2023-02-11T22:33:40.870Z,103196.41
2023-02-11T22:36:10.196Z,103204.31
2023-02-11T22:38:36.608Z,103201.59
2023-02-11T22:41:07.352Z,103212.22
2023-02-11T22:43:33.739Z,103206.94
2023-02-11T22:46:01.313Z,103211.44
2023-02-11T22:48:27.734Z,103214.88
2023-02-11T22:50:54.157Z,103220.94
2023-02-11T22:53:20.589Z,103230.72
2023-02-11T22:55:46.997Z,103238.66
2023-02-11T22:58:13.376Z,103234.09
2023-02-11T23:00:40.669Z,103237.56
2023-02-11T23:03:07.299Z,103244.69
2023-02-11T23:05:40.356Z,103240.22
2023-02-11T23:08:08.287Z,103246.38
2023-02-11T23:10:35.558Z,103241.22
2023-02-11T23:13:02.262Z,103243.88
2023-02-11T23:15:28.686Z,103247.47
2023-02-11T23:17:55.067Z,103243.03
2023-02-11T23:20:21.486Z,103247.50
2023-02-11T23:22:47.877Z,103239.34
2023-02-11T23:25:14.337Z,103250.97
2023-02-11T23:27:40.754Z,103244.69
2023-02-11T23:30:07.744Z,103244.69
2023-02-11T23:32:34.288Z,103256.34
2023-02-11T23:35:00.675Z,103250.91
2023-02-11T23:37:27.092Z,103258.94
2023-02-11T23:39:53.495Z,103266.00
2023-02-11T23:42:19.924Z,103257.16
2023-02-11T23:44:46.466Z,103256.22
2023-02-11T23:47:12.872Z,103263.22
2023-02-11T23:49:39.254Z,103270.34
2023-02-11T23:52:05.675Z,103266.81
2023-02-11T23:54:32.057Z,103276.47
2023-02-11T23:56:58.451Z,103279.03
2023-02-11T23:59:24.846Z,103276.28
